Time;durP1;ratioP1;P1;durP2;ratioP2;P2;SDS_P1;SDS_P2;PMS_P1;PMS_P2;Temp;Humidity;BMP_temperature;BMP_pressure;BME280_temperature;BME280_humidity;BME280_pressure;Samples;Min_cycle;Max_cycle;Signal;HPM_P1;HPM_P2
2022/11/27 00:00:54;;;;;;;20.05;6.88;;;7.60;99.90;;;;;;5069951;28;20118;-70
2022/11/27 00:03:19;;;;;;;23.38;6.80;;;7.60;99.90;;;;;;5069440;28;20023;-70
2022/11/27 00:05:57;;;;;;;20.35;6.75;;;7.60;99.90;;;;;;5069359;28;20032;-70
2022/11/27 00:08:24;;;;;;;26.13;7.05;;;7.60;99.90;;;;;;5069524;28;20499;-70
2022/11/27 00:10:49;;;;;;;26.02;6.82;;;7.60;99.90;;;;;;5060154;28;20045;-70
2022/11/27 00:13:15;;;;;;;20.45;6.55;;;7.60;99.90;;;;;;5063622;28;20101;-70
2022/11/27 00:15:40;;;;;;;21.55;6.47;;;7.60;99.90;;;;;;5070275;28;20032;-69
2022/11/27 00:18:06;;;;;;;21.60;6.30;;;7.60;99.90;;;;;;5069388;28;20488;-70
2022/11/27 00:20:32;;;;;;;24.08;6.80;;;7.60;99.90;;;;;;5064794;28;20017;-70
2022/11/27 00:22:57;;;;;;;24.40;6.10;;;7.60;99.90;;;;;;5050210;28;20025;-69
2022/11/27 00:25:23;;;;;;;19.75;5.95;;;7.60;99.90;;;;;;5066040;28;20021;-70
2022/11/27 00:27:48;;;;;;;20.67;6.15;;;7.60;99.90;;;;;;5069747;28;20107;-69
2022/11/27 00:30:14;;;;;;;14.05;5.50;;;7.60;99.90;;;;;;5056677;28;20033;-70
2022/11/27 00:32:39;;;;;;;19.52;6.50;;;7.60;99.90;;;;;;5068133;28;20100;-70
2022/11/27 00:35:06;;;;;;;16.65;5.60;;;7.60;99.90;;;;;;5069793;28;20025;-69
2022/11/27 00:37:32;;;;;;;16.15;5.32;;;7.60;99.90;;;;;;5068679;28;20029;-70
2022/11/27 00:39:57;;;;;;;24.23;5.72;;;7.60;99.90;;;;;;5058739;28;20036;-70
2022/11/27 00:42:23;;;;;;;23.38;5.95;;;7.60;99.90;;;;;;5064144;28;20025;-69
2022/11/27 00:44:49;;;;;;;18.00;5.85;;;7.60;99.90;;;;;;5069545;28;20070;-70
2022/11/27 00:47:14;;;;;;;18.92;5.45;;;7.60;99.90;;;;;;5069280;28;20032;-70
2022/11/27 00:49:40;;;;;;;17.17;5.40;;;7.60;99.90;;;;;;5068685;28;20024;-70
2022/11/27 00:52:05;;;;;;;15.70;5.45;;;7.60;99.90;;;;;;5063454;28;20021;-69
2022/11/27 00:54:31;;;;;;;19.02;5.30;;;7.60;99.90;;;;;;5047889;28;20017;-70
2022/11/27 00:56:56;;;;;;;16.63;6.00;;;7.60;99.90;;;;;;5066976;28;20059;-70
2022/11/27 00:59:22;;;;;;;18.75;5.70;;;7.60;99.90;;;;;;5069838;28;20465;-70
2022/11/27 01:01:48;;;;;;;17.40;5.93;;;7.60;99.90;;;;;;5068777;28;20070;-69
2022/11/27 01:04:14;;;;;;;25.17;5.70;;;7.60;99.90;;;;;;5069798;28;20028;-70
2022/11/27 01:06:41;;;;;;;17.00;5.35;;;7.60;99.90;;;;;;5067717;28;20028;-70
2022/11/27 01:09:07;;;;;;;15.65;5.18;;;7.60;99.90;;;;;;5064872;28;20052;-69
2022/11/27 01:11:34;;;;;;;20.60;5.97;;;7.60;99.90;;;;;;5059455;28;20015;-69
2022/11/27 01:14:03;;;;;;;20.02;5.28;;;7.60;99.90;;;;;;5068251;28;20033;-69
2022/11/27 01:16:31;;;;;;;15.45;5.20;;;7.60;99.90;;;;;;5068218;28;20032;-69
2022/11/27 01:18:58;;;;;;;13.20;4.97;;;7.70;99.90;;;;;;5063179;28;20033;-69
2022/11/27 01:21:26;;;;;;;15.90;4.70;;;7.60;99.90;;;;;;5062172;28;20090;-70
2022/11/27 01:23:53;;;;;;;16.25;5.43;;;7.70;99.90;;;;;;5060557;28;20373;-69
2022/11/27 01:26:18;;;;;;;14.50;5.25;;;7.70;99.90;;;;;;5060719;28;20020;-69
2022/11/27 01:28:44;;;;;;;16.75;5.30;;;7.70;99.90;;;;;;5069816;28;20491;-69
2022/11/27 01:31:16;;;;;;;18.95;5.07;;;7.70;99.90;;;;;;5070098;28;20028;-71
2022/11/27 01:33:43;;;;;;;13.85;4.78;;;7.70;99.90;;;;;;5071991;28;20033;-69
2022/11/27 01:36:11;;;;;;;18.20;5.10;;;7.70;99.90;;;;;;5071832;28;20036;-69
2022/11/27 01:38:37;;;;;;;17.98;5.60;;;7.70;99.90;;;;;;5063605;28;20044;-69
2022/11/27 01:41:06;;;;;;;20.45;5.57;;;7.70;99.90;;;;;;5072285;28;20109;-69
2022/11/27 01:43:59;;;;;;;14.88;4.60;;;7.70;99.90;;;;;;5058894;28;20389;-70
2022/11/27 01:46:33;;;;;;;17.75;4.93;;;7.70;99.90;;;;;;5069614;28;20147;-70
2022/11/27 01:49:02;;;;;;;17.60;5.20;;;7.70;99.90;;;;;;5065128;28;20377;-69
2022/11/27 01:51:29;;;;;;;17.30;5.43;;;7.70;99.90;;;;;;5061224;28;20302;-70
2022/11/27 01:53:55;;;;;;;17.55;4.75;;;7.70;99.90;;;;;;5065584;28;20025;-70
2022/11/27 01:56:22;;;;;;;14.63;4.85;;;7.70;99.90;;;;;;5059847;28;20183;-69
2022/11/27 01:58:48;;;;;;;16.55;4.90;;;7.70;99.90;;;;;;5071544;28;20071;-69
2022/11/27 02:01:14;;;;;;;16.98;5.05;;;7.70;99.90;;;;;;5071350;28;20016;-69
2022/11/27 02:03:39;;;;;;;18.67;4.75;;;7.80;99.90;;;;;;5071857;28;20487;-69
2022/11/27 02:06:05;;;;;;;22.98;5.25;;;7.70;99.90;;;;;;5072145;28;20024;-70
2022/11/27 02:08:31;;;;;;;23.10;5.22;;;7.70;99.90;;;;;;5069787;28;20358;-69
2022/11/27 02:11:08;;;;;;;15.32;5.28;;;7.80;99.90;;;;;;5070131;28;20063;-69
2022/11/27 02:14:04;;;;;;;19.38;4.80;;;7.80;99.90;;;;;;5062560;28;20012;-70
2022/11/27 02:16:55;;;;;;;14.15;4.43;;;7.80;99.90;;;;;;5066057;28;20052;-70
2022/11/27 02:19:38;;;;;;;14.35;4.40;;;7.80;99.90;;;;;;5071377;28;20024;-70
2022/11/27 02:22:22;;;;;;;17.95;5.43;;;7.80;99.90;;;;;;5070946;28;20036;-69
2022/11/27 02:25:05;;;;;;;18.30;4.55;;;7.80;99.90;;;;;;5060638;28;20037;-70
2022/11/27 02:28:00;;;;;;;15.45;4.80;;;7.70;99.90;;;;;;5050829;28;20020;-69
2022/11/27 02:30:26;;;;;;;15.48;4.55;;;7.80;99.90;;;;;;5051125;28;20044;-69
2022/11/27 02:33:01;;;;;;;13.93;4.80;;;7.80;99.90;;;;;;5063505;28;20473;-70
2022/11/27 02:35:49;;;;;;;16.55;5.07;;;7.80;99.90;;;;;;5067832;28;20021;-69
2022/11/27 02:38:30;;;;;;;18.05;5.00;;;7.80;99.90;;;;;;5057001;28;20509;-69
2022/11/27 02:41:04;;;;;;;24.23;4.80;;;7.80;99.90;;;;;;5070903;28;20029;-69
2022/11/27 02:43:39;;;;;;;12.93;4.68;;;7.80;99.90;;;;;;5068099;28;20166;-69
2022/11/27 02:46:08;;;;;;;15.70;4.32;;;7.80;99.90;;;;;;5051272;28;20616;-70
2022/11/27 02:48:38;;;;;;;16.35;4.57;;;7.80;99.90;;;;;;5064985;28;20032;-69
2022/11/27 02:51:05;;;;;;;16.85;4.43;;;7.90;99.90;;;;;;5062969;28;20066;-70
2022/11/27 02:53:53;;;;;;;22.20;5.40;;;7.80;99.90;;;;;;5065192;28;20484;-69
2022/11/27 02:56:21;;;;;;;16.02;4.80;;;7.90;99.90;;;;;;5071131;28;20089;-69
2022/11/27 02:58:49;;;;;;;19.83;4.45;;;7.90;99.90;;;;;;5069896;28;20020;-69
2022/11/27 03:01:19;;;;;;;16.13;4.90;;;7.80;99.90;;;;;;5060513;28;20028;-70
2022/11/27 03:03:48;;;;;;;19.17;4.57;;;7.80;99.90;;;;;;5063866;28;20025;-70
2022/11/27 03:06:19;;;;;;;18.85;4.57;;;7.90;99.90;;;;;;5060310;28;20033;-70
2022/11/27 03:09:07;;;;;;;17.58;4.47;;;7.90;99.90;;;;;;5061688;28;20033;-69
2022/11/27 03:11:33;;;;;;;23.23;5.25;;;7.90;99.90;;;;;;5067072;28;20043;-70
2022/11/27 03:14:04;;;;;;;16.80;4.75;;;7.90;99.90;;;;;;5064827;28;20029;-69
2022/11/27 03:16:41;;;;;;;24.33;8.50;;;7.90;99.90;;;;;;5058293;28;20031;-69
2022/11/27 03:19:25;;;;;;;21.60;8.63;;;7.90;99.90;;;;;;5060311;28;20469;-71
2022/11/27 03:21:55;;;;;;;16.45;4.95;;;7.90;99.90;;;;;;5063346;28;20059;-71
2022/11/27 03:24:20;;;;;;;13.50;4.15;;;7.90;99.90;;;;;;5059034;28;20135;-70
2022/11/27 03:26:47;;;;;;;14.48;4.63;;;7.90;99.90;;;;;;5057485;28;20472;-68
2022/11/27 03:29:47;;;;;;;19.38;4.55;;;7.90;99.90;;;;;;5059728;28;20086;-68
2022/11/27 03:32:13;;;;;;;16.50;4.05;;;7.90;99.90;;;;;;5066950;28;20032;-69
2022/11/27 03:34:39;;;;;;;17.75;4.85;;;7.80;99.90;;;;;;5060567;28;20074;-70
2022/11/27 03:37:05;;;;;;;10.35;4.00;;;7.80;99.90;;;;;;5055818;28;20025;-71
2022/11/27 03:39:31;;;;;;;16.83;4.55;;;7.90;99.90;;;;;;5064679;28;20104;-71
2022/11/27 03:42:04;;;;;;;16.98;4.38;;;7.90;99.90;;;;;;5055865;28;20009;-70
2022/11/27 03:44:39;;;;;;;14.27;4.00;;;7.90;99.90;;;;;;5057111;28;20060;-71
2022/11/27 03:47:42;;;;;;;16.25;4.78;;;7.90;99.90;;;;;;5061157;28;20037;-70
2022/11/27 03:50:18;;;;;;;15.95;4.07;;;7.90;99.90;;;;;;5057484;28;20033;-70
2022/11/27 03:53:20;;;;;;;15.80;4.38;;;7.80;99.90;;;;;;5068162;28;20048;-70
2022/11/27 03:56:23;;;;;;;15.15;4.28;;;7.90;99.90;;;;;;5059117;28;20025;-70
2022/11/27 03:59:02;;;;;;;12.32;4.00;;;7.90;99.90;;;;;;5050184;28;20017;-70
2022/11/27 04:01:29;;;;;;;14.23;4.50;;;7.80;99.90;;;;;;5064908;28;20078;-70
2022/11/27 04:03:55;;;;;;;14.05;4.20;;;7.90;99.90;;;;;;5068876;28;20480;-70
2022/11/27 04:06:20;;;;;;;18.00;4.20;;;7.90;99.90;;;;;;5068665;28;20032;-70
2022/11/27 04:08:46;;;;;;;16.45;4.22;;;7.80;99.90;;;;;;5062890;28;20041;-70
2022/11/27 04:11:13;;;;;;;15.23;4.28;;;7.90;99.90;;;;;;5052873;28;20369;-70
2022/11/27 04:13:38;;;;;;;16.70;4.53;;;7.90;99.90;;;;;;5055759;28;20032;-70
2022/11/27 04:16:04;;;;;;;15.13;4.28;;;7.90;99.90;;;;;;5062207;28;20021;-70
2022/11/27 04:18:30;;;;;;;17.88;4.30;;;7.90;99.90;;;;;;5062530;28;20113;-70
2022/11/27 04:20:56;;;;;;;17.40;4.97;;;7.90;99.90;;;;;;5060967;28;20032;-71
2022/11/27 04:23:21;;;;;;;15.70;4.82;;;7.90;99.90;;;;;;5062066;28;20054;-71
2022/11/27 04:25:47;;;;;;;19.25;4.50;;;7.80;99.90;;;;;;5059567;28;20024;-71
2022/11/27 04:28:13;;;;;;;13.40;4.38;;;7.80;99.90;;;;;;5062017;28;20116;-71
2022/11/27 04:30:39;;;;;;;11.55;4.10;;;7.80;99.90;;;;;;5053519;28;20139;-70
2022/11/27 04:33:04;;;;;;;14.85;3.72;;;7.80;99.90;;;;;;5051921;28;20414;-71
2022/11/27 04:35:30;;;;;;;13.68;4.32;;;7.80;99.90;;;;;;5054766;28;20456;-71
2022/11/27 04:37:56;;;;;;;18.25;4.82;;;7.80;99.90;;;;;;5061476;28;20032;-71
2022/11/27 04:40:22;;;;;;;12.55;4.03;;;7.80;99.90;;;;;;5060743;28;20389;-70
2022/11/27 04:42:48;;;;;;;15.45;4.30;;;7.80;99.90;;;;;;5056920;28;20031;-71
2022/11/27 04:45:13;;;;;;;13.80;4.50;;;7.80;99.90;;;;;;5066847;28;20048;-71
2022/11/27 04:47:39;;;;;;;12.57;3.92;;;7.80;99.90;;;;;;5064005;28;20064;-71
2022/11/27 04:50:05;;;;;;;16.92;4.55;;;7.80;99.90;;;;;;5067324;28;20028;-70
2022/11/27 04:52:31;;;;;;;17.52;3.97;;;7.80;99.90;;;;;;5059088;28;20033;-71
2022/11/27 04:54:56;;;;;;;18.35;4.28;;;7.80;99.90;;;;;;5067318;28;20028;-70
2022/11/27 04:57:22;;;;;;;18.13;4.43;;;7.80;99.90;;;;;;5067501;28;20387;-71
2022/11/27 04:59:48;;;;;;;17.08;4.35;;;7.80;99.90;;;;;;5068374;28;20027;-71
2022/11/27 05:02:13;;;;;;;18.27;4.20;;;7.80;99.90;;;;;;5073220;28;20067;-71
2022/11/27 05:04:39;;;;;;;13.85;4.00;;;7.80;99.90;;;;;;5072396;28;20095;-71
2022/11/27 05:07:05;;;;;;;12.27;4.13;;;7.80;99.90;;;;;;5072471;28;20028;-71
2022/11/27 05:09:30;;;;;;;12.70;4.10;;;7.80;99.90;;;;;;5072408;28;20046;-71
2022/11/27 05:11:56;;;;;;;13.05;3.67;;;7.80;99.90;;;;;;5072081;28;20016;-71
2022/11/27 05:14:25;;;;;;;11.88;3.80;;;7.80;99.90;;;;;;5066762;28;20096;-70
2022/11/27 05:16:53;;;;;;;12.88;4.28;;;7.80;99.90;;;;;;5064895;28;20051;-71
2022/11/27 05:19:21;;;;;;;16.30;4.38;;;7.80;99.90;;;;;;5071324;28;20074;-71
2022/11/27 05:21:48;;;;;;;18.92;4.25;;;7.80;99.90;;;;;;5068859;28;20089;-71
2022/11/27 05:24:17;;;;;;;18.65;4.70;;;7.80;99.90;;;;;;5060453;28;20025;-71
2022/11/27 05:26:43;;;;;;;14.70;4.40;;;7.80;99.90;;;;;;5056476;28;20039;-70
2022/11/27 05:29:09;;;;;;;13.65;3.88;;;7.80;99.90;;;;;;5054939;28;20389;-70
2022/11/27 05:31:36;;;;;;;15.82;4.22;;;7.80;99.90;;;;;;5059345;28;20029;-71
2022/11/27 05:34:02;;;;;;;12.25;3.90;;;7.80;99.90;;;;;;5071016;28;20392;-71
2022/11/27 05:36:28;;;;;;;15.35;3.97;;;7.80;99.90;;;;;;5063701;28;20036;-71
2022/11/27 05:38:53;;;;;;;22.60;4.53;;;7.70;99.90;;;;;;5067517;28;20111;-71
2022/11/27 05:41:20;;;;;;;15.10;4.30;;;7.80;99.90;;;;;;5068118;28;20020;-71
2022/11/27 05:43:46;;;;;;;11.02;4.40;;;7.70;99.90;;;;;;5059511;28;20033;-70
2022/11/27 05:46:13;;;;;;;12.88;4.05;;;7.70;99.90;;;;;;5066721;28;20040;-70
2022/11/27 05:48:39;;;;;;;12.43;4.10;;;7.70;99.90;;;;;;5066749;28;20075;-71
2022/11/27 05:51:05;;;;;;;14.55;4.00;;;7.70;99.90;;;;;;5065589;28;20025;-71
2022/11/27 05:53:30;;;;;;;11.13;3.92;;;7.70;99.90;;;;;;5051631;28;20025;-71
2022/11/27 05:56:05;;;;;;;12.57;4.00;;;7.70;99.90;;;;;;5053373;28;20032;-71
2022/11/27 05:58:31;;;;;;;12.60;3.90;;;7.70;99.90;;;;;;5071138;28;20032;-71
2022/11/27 06:00:57;;;;;;;12.88;4.05;;;7.70;99.90;;;;;;5062080;28;20031;-71
2022/11/27 06:03:23;;;;;;;11.88;3.55;;;7.70;99.90;;;;;;5070771;28;20030;-71
2022/11/27 06:05:48;;;;;;;11.43;4.03;;;7.60;99.90;;;;;;5053236;28;20466;-71
2022/11/27 06:08:14;;;;;;;13.90;3.75;;;7.60;99.90;;;;;;5052929;28;20037;-71
2022/11/27 06:10:39;;;;;;;13.98;3.88;;;7.60;99.90;;;;;;5054547;28;20102;-71
2022/11/27 06:13:05;;;;;;;9.07;3.45;;;7.60;99.90;;;;;;5059433;28;20039;-71
2022/11/27 06:15:31;;;;;;;16.30;3.55;;;7.60;99.90;;;;;;5052052;28;20189;-72
2022/11/27 06:17:57;;;;;;;13.63;3.83;;;7.60;99.90;;;;;;5062961;28;20556;-71
2022/11/27 06:20:23;;;;;;;10.15;3.47;;;7.60;99.90;;;;;;5068484;28;20404;-71
2022/11/27 06:22:49;;;;;;;13.90;3.70;;;7.60;99.90;;;;;;5062055;28;20059;-71
2022/11/27 06:25:15;;;;;;;11.35;3.55;;;7.60;99.90;;;;;;5061294;28;20025;-71
2022/11/27 06:27:41;;;;;;;11.70;3.50;;;7.60;99.90;;;;;;5071551;28;20033;-70
2022/11/27 06:30:07;;;;;;;11.68;3.58;;;7.60;99.90;;;;;;5066225;28;20166;-71
2022/11/27 06:32:33;;;;;;;12.65;4.10;;;7.50;99.90;;;;;;5064853;28;20466;-71
2022/11/27 06:34:59;;;;;;;10.73;3.40;;;7.60;99.90;;;;;;5054824;28;20061;-72
2022/11/27 06:37:24;;;;;;;13.93;3.92;;;7.60;99.90;;;;;;5064020;28;20029;-71
2022/11/27 06:39:50;;;;;;;9.98;3.00;;;7.60;99.90;;;;;;5059748;28;20107;-71
2022/11/27 06:42:16;;;;;;;14.40;4.13;;;7.60;99.90;;;;;;5058029;28;20025;-71
2022/11/27 06:44:41;;;;;;;10.90;3.95;;;7.50;99.90;;;;;;5070956;28;20052;-71
2022/11/27 06:47:07;;;;;;;13.20;3.38;;;7.50;99.90;;;;;;5058364;28;20043;-71
2022/11/27 06:49:33;;;;;;;17.77;3.90;;;7.50;99.90;;;;;;5068756;28;20308;-71
2022/11/27 06:51:59;;;;;;;14.57;3.92;;;7.50;99.90;;;;;;5066876;28;20138;-70
2022/11/27 06:54:25;;;;;;;12.25;3.88;;;7.50;99.90;;;;;;5065094;28;20031;-71
2022/11/27 06:56:51;;;;;;;12.82;3.38;;;7.50;99.90;;;;;;5051477;28;20033;-71
2022/11/27 06:59:17;;;;;;;12.98;3.38;;;7.50;99.90;;;;;;5059780;28;20055;-71
2022/11/27 07:01:43;;;;;;;12.23;3.42;;;7.50;99.90;;;;;;5066088;28;20020;-71
2022/11/27 07:04:10;;;;;;;6.80;3.20;;;7.50;99.90;;;;;;5070264;28;20046;-70
2022/11/27 07:06:36;;;;;;;9.13;3.10;;;7.50;99.90;;;;;;5066169;28;20038;-70
2022/11/27 07:09:01;;;;;;;12.43;3.15;;;7.50;99.90;;;;;;5053469;28;20489;-71
2022/11/27 07:11:28;;;;;;;14.45;2.90;;;7.50;99.90;;;;;;5065392;28;20104;-71
2022/11/27 07:13:57;;;;;;;12.32;3.28;;;7.50;99.90;;;;;;5054669;28;20373;-71
2022/11/27 07:16:23;;;;;;;11.55;2.65;;;7.50;99.90;;;;;;5067618;28;20572;-71
2022/11/27 07:18:51;;;;;;;8.07;2.90;;;7.50;99.90;;;;;;5055725;28;20095;-70
2022/11/27 07:21:17;;;;;;;9.25;3.33;;;7.50;99.90;;;;;;5062126;28;20070;-71
2022/11/27 07:23:43;;;;;;;9.48;3.13;;;7.50;99.90;;;;;;5060840;28;20064;-71
2022/11/27 07:26:15;;;;;;;11.68;3.65;;;7.50;99.90;;;;;;5058534;28;20060;-70
2022/11/27 07:28:44;;;;;;;8.80;3.25;;;7.50;99.90;;;;;;5065061;28;20465;-71
2022/11/27 07:31:11;;;;;;;11.50;3.03;;;7.50;99.90;;;;;;5062545;28;20114;-71
2022/11/27 07:33:37;;;;;;;9.02;3.50;;;7.50;99.90;;;;;;5056081;28;20532;-71
2022/11/27 07:36:11;;;;;;;8.77;3.10;;;7.50;99.90;;;;;;5054992;28;20115;-70
2022/11/27 07:38:37;;;;;;;9.07;3.47;;;7.50;99.90;;;;;;5066220;28;20032;-71
2022/11/27 07:41:03;;;;;;;11.68;3.60;;;7.50;99.90;;;;;;5065903;28;20046;-70
2022/11/27 07:43:30;;;;;;;9.40;3.80;;;7.50;99.90;;;;;;5057179;28;20020;-71
2022/11/27 07:45:56;;;;;;;10.80;4.00;;;7.50;99.90;;;;;;5056312;28;20057;-70
2022/11/27 07:48:21;;;;;;;8.95;3.70;;;7.50;99.90;;;;;;5060202;28;20507;-71
2022/11/27 07:50:48;;;;;;;8.43;3.92;;;7.50;99.90;;;;;;5056900;28;20554;-71
2022/11/27 07:53:14;;;;;;;8.05;3.38;;;7.50;99.90;;;;;;5079292;28;20116;-71
2022/11/27 07:55:40;;;;;;;11.18;3.70;;;7.50;99.90;;;;;;5075012;28;20089;-71
2022/11/27 07:58:07;;;;;;;10.82;3.58;;;7.50;99.90;;;;;;5069825;28;20040;-71
2022/11/27 08:00:34;;;;;;;11.43;4.10;;;7.50;99.90;;;;;;5074547;28;20024;-71
2022/11/27 08:03:00;;;;;;;8.40;3.28;;;7.50;99.90;;;;;;5072599;28;20500;-71
2022/11/27 08:05:26;;;;;;;15.57;4.03;;;7.50;99.90;;;;;;5084087;28;20086;-71
2022/11/27 08:07:51;;;;;;;12.25;3.58;;;7.50;99.90;;;;;;5077261;28;20045;-71
2022/11/27 08:10:17;;;;;;;12.40;3.80;;;7.60;99.90;;;;;;5072027;28;20035;-71
2022/11/27 08:12:43;;;;;;;12.40;3.90;;;7.60;99.90;;;;;;5057057;28;20044;-71
2022/11/27 08:15:09;;;;;;;11.25;3.90;;;7.60;99.90;;;;;;5057078;28;20117;-71
2022/11/27 08:17:35;;;;;;;12.85;3.70;;;7.50;99.90;;;;;;5063436;28;20082;-71
2022/11/27 08:20:01;;;;;;;14.88;3.88;;;7.50;99.90;;;;;;5079630;28;20051;-72
2022/11/27 08:22:27;;;;;;;13.85;4.32;;;7.60;99.90;;;;;;5077291;28;20365;-71
2022/11/27 08:24:52;;;;;;;12.85;3.95;;;7.50;99.90;;;;;;5065959;28;20009;-71
2022/11/27 08:27:18;;;;;;;12.80;4.32;;;7.60;99.90;;;;;;5056105;28;20024;-71
2022/11/27 08:29:43;;;;;;;12.88;4.60;;;7.50;99.90;;;;;;5065463;28;20028;-71
2022/11/27 08:32:09;;;;;;;10.20;3.92;;;7.50;99.90;;;;;;5063116;28;20574;-73
2022/11/27 08:34:36;;;;;;;11.25;4.30;;;7.60;99.90;;;;;;4849104;28;20047;-73
2022/11/27 08:37:06;;;;;;;16.08;4.43;;;7.60;99.90;;;;;;4864552;28;20036;-73
2022/11/27 08:39:32;;;;;;;12.32;4.45;;;7.60;99.90;;;;;;5043399;28;20078;-72
2022/11/27 08:41:57;;;;;;;12.18;4.80;;;7.60;99.90;;;;;;5068116;28;20422;-72
2022/11/27 08:44:23;;;;;;;13.32;4.78;;;7.60;99.90;;;;;;5070982;28;20016;-71
2022/11/27 08:46:49;;;;;;;14.18;4.90;;;7.60;99.90;;;;;;5065462;28;20401;-71
2022/11/27 08:49:14;;;;;;;11.68;4.72;;;7.50;99.90;;;;;;5060495;28;20029;-72
2022/11/27 08:51:40;;;;;;;13.55;4.63;;;7.60;99.90;;;;;;5048501;28;20392;-71
2022/11/27 08:54:06;;;;;;;11.65;4.88;;;7.60;99.90;;;;;;5063709;28;20498;-73
2022/11/27 08:56:31;;;;;;;13.05;4.95;;;7.60;99.90;;;;;;5057090;28;20025;-72
2022/11/27 08:58:57;;;;;;;13.32;4.78;;;7.50;99.90;;;;;;5061284;28;20358;-71
2022/11/27 09:01:26;;;;;;;16.13;4.70;;;7.60;99.90;;;;;;5061783;28;20024;-71
2022/11/27 09:03:52;;;;;;;12.05;4.97;;;7.60;99.90;;;;;;5059605;28;20025;-71
2022/11/27 09:06:21;;;;;;;13.50;4.75;;;7.50;99.90;;;;;;5062195;28;20047;-72
2022/11/27 09:08:48;;;;;;;14.05;5.00;;;7.50;99.90;;;;;;5067141;28;20035;-73
2022/11/27 09:11:16;;;;;;;9.82;5.25;;;7.50;99.90;;;;;;5064846;28;20033;-73
2022/11/27 09:13:42;;;;;;;15.63;5.30;;;7.60;99.90;;;;;;5059046;28;20029;-70
2022/11/27 09:16:10;;;;;;;17.42;5.15;;;7.60;99.90;;;;;;5059013;28;20028;-70
2022/11/27 09:18:36;;;;;;;11.82;5.20;;;7.50;99.90;;;;;;5063550;28;20027;-70
2022/11/27 09:21:05;;;;;;;12.55;5.25;;;7.60;99.90;;;;;;5070046;28;20031;-70
2022/11/27 09:23:30;;;;;;;13.35;4.90;;;7.60;99.90;;;;;;5076381;28;20038;-72
2022/11/27 09:26:04;;;;;;;13.50;5.78;;;7.60;99.90;;;;;;5065005;28;20547;-72
2022/11/27 09:28:31;;;;;;;11.73;5.22;;;7.60;99.90;;;;;;5064444;28;20036;-72
2022/11/27 09:31:00;;;;;;;12.80;4.90;;;7.60;99.90;;;;;;5064813;28;20028;-71
2022/11/27 09:33:27;;;;;;;13.23;5.00;;;7.60;99.90;;;;;;5069122;28;20013;-71
2022/11/27 09:35:53;;;;;;;12.00;5.30;;;7.50;99.90;;;;;;5068502;28;20021;-71
2022/11/27 09:38:19;;;;;;;12.80;5.20;;;7.60;99.90;;;;;;5058096;28;20031;-72
2022/11/27 09:40:48;;;;;;;13.25;4.90;;;7.60;99.90;;;;;;5067825;28;20063;-71
2022/11/27 09:43:16;;;;;;;14.95;5.43;;;7.60;99.90;;;;;;5068723;28;20500;-71
2022/11/27 09:45:49;;;;;;;12.45;5.30;;;7.60;99.90;;;;;;5065757;28;20069;-71
2022/11/27 09:48:32;;;;;;;12.98;5.40;;;7.60;99.90;;;;;;5063845;28;20493;-72
2022/11/27 09:51:00;;;;;;;15.48;5.78;;;7.60;99.90;;;;;;5072340;28;20035;-72
2022/11/27 09:53:44;;;;;;;15.80;5.75;;;7.60;99.90;;;;;;5069754;28;20036;-72
2022/11/27 09:56:13;;;;;;;14.50;5.30;;;7.60;99.90;;;;;;5072008;28;20078;-71
2022/11/27 09:58:41;;;;;;;13.43;5.18;;;7.70;99.90;;;;;;5070788;28;20033;-72
2022/11/27 10:01:15;;;;;;;18.27;5.78;;;7.70;99.90;;;;;;5062717;28;20644;-72
2022/11/27 10:03:43;;;;;;;12.40;5.22;;;7.70;99.90;;;;;;5062889;28;20019;-71
2022/11/27 10:06:29;;;;;;;13.85;5.57;;;7.70;99.90;;;;;;5061749;28;20060;-71
2022/11/27 10:09:18;;;;;;;13.88;5.63;;;7.70;99.90;;;;;;5071974;28;20024;-72
2022/11/27 10:11:49;;;;;;;11.73;5.30;;;7.70;99.90;;;;;;5064253;28;20039;-71
2022/11/27 10:14:48;;;;;;;15.60;5.57;;;7.70;99.90;;;;;;5064969;28;20056;-70
2022/11/27 10:17:51;;;;;;;14.77;5.85;;;7.70;99.90;;;;;;5070038;28;20032;-71
2022/11/27 10:20:31;;;;;;;17.52;6.30;;;7.70;99.90;;;;;;5061953;28;20041;-72
2022/11/27 10:23:19;;;;;;;16.25;6.45;;;7.70;99.90;;;;;;5073223;28;20028;-72
2022/11/27 10:25:49;;;;;;;13.90;5.57;;;7.70;99.90;;;;;;5065245;28;20417;-73
2022/11/27 10:28:36;;;;;;;13.30;5.95;;;7.70;99.90;;;;;;5067372;28;20025;-71
2022/11/27 10:31:12;;;;;;;16.88;6.72;;;7.70;99.90;;;;;;5066938;28;20066;-71
2022/11/27 10:34:05;;;;;;;14.90;6.00;;;7.70;99.90;;;;;;5065642;28;20033;-71
2022/11/27 10:36:47;;;;;;;14.45;5.95;;;7.70;99.90;;;;;;5061665;28;20172;-69
2022/11/27 10:39:21;;;;;;;13.68;6.30;;;7.70;99.90;;;;;;5063702;28;20020;-70
2022/11/27 10:41:55;;;;;;;14.13;6.00;;;7.70;99.90;;;;;;5055904;28;20033;-69
2022/11/27 10:44:32;;;;;;;17.83;6.73;;;7.70;99.90;;;;;;5068339;28;20070;-70
2022/11/27 10:47:02;;;;;;;17.02;6.57;;;7.70;99.90;;;;;;5062116;28;20074;-70
2022/11/27 10:49:28;;;;;;;15.82;6.45;;;7.70;99.90;;;;;;5067386;28;20032;-70
2022/11/27 10:51:54;;;;;;;13.65;6.45;;;7.80;99.90;;;;;;5062278;28;20494;-69
2022/11/27 10:54:28;;;;;;;18.10;6.85;;;7.80;99.90;;;;;;5061149;28;20021;-69
2022/11/27 10:57:33;;;;;;;17.40;7.03;;;7.80;99.90;;;;;;5058945;28;20488;-70
2022/11/27 11:00:17;;;;;;;16.20;6.15;;;7.80;99.90;;;;;;5062787;28;20033;-69
2022/11/27 11:02:43;;;;;;;17.77;6.65;;;7.80;99.90;;;;;;5065045;28;20098;-69
2022/11/27 11:05:19;;;;;;;16.27;6.97;;;7.80;99.90;;;;;;5071434;28;20028;-70
2022/11/27 11:08:03;;;;;;;16.15;6.97;;;7.80;99.90;;;;;;5069033;28;20033;-69
2022/11/27 11:10:31;;;;;;;18.35;7.00;;;7.80;99.90;;;;;;5055882;28;20032;-69
2022/11/27 11:13:14;;;;;;;15.90;6.80;;;7.80;99.90;;;;;;5062164;28;20056;-69
2022/11/27 11:16:00;;;;;;;17.83;7.00;;;7.90;99.90;;;;;;5069052;28;20031;-71
2022/11/27 11:18:28;;;;;;;;;;;7.80;99.90;;;;;;5062172;28;20029;-70
2022/11/27 11:20:57;;;;;;;18.45;7.82;;;7.80;99.90;;;;;;5060197;28;19908;-69
2022/11/27 11:23:32;;;;;;;18.73;7.28;;;7.80;99.90;;;;;;5058938;28;20021;-69
2022/11/27 11:26:04;;;;;;;18.38;7.68;;;7.80;99.90;;;;;;5054815;28;20037;-70
2022/11/27 11:28:31;;;;;;;17.45;7.50;;;7.80;99.90;;;;;;5055787;28;20037;-71
2022/11/27 11:31:07;;;;;;;14.85;7.10;;;7.80;99.90;;;;;;5056543;28;20032;-71
2022/11/27 11:33:48;;;;;;;20.67;7.95;;;7.80;99.90;;;;;;5057259;28;20029;-70
2022/11/27 11:36:14;;;;;;;19.05;7.70;;;7.80;99.90;;;;;;5058780;28;20028;-70
2022/11/27 11:38:44;;;;;;;21.33;8.55;;;7.80;99.90;;;;;;5059950;28;20074;-69
2022/11/27 11:41:12;;;;;;;21.00;8.38;;;7.80;99.90;;;;;;5057343;28;20052;-69
2022/11/27 11:44:00;;;;;;;17.30;7.97;;;7.80;99.90;;;;;;5055534;28;20380;-70
2022/11/27 11:46:28;;;;;;;20.70;8.43;;;7.80;99.90;;;;;;5060988;28;20044;-71
2022/11/27 11:48:59;;;;;;;20.38;8.05;;;7.80;99.90;;;;;;5061964;28;20025;-70
2022/11/27 11:51:36;;;;;;;16.75;8.18;;;7.80;99.90;;;;;;5066524;28;20032;-69
2022/11/27 11:54:28;;;;;;;22.92;8.20;;;7.80;99.90;;;;;;5068696;28;20405;-69
2022/11/27 11:57:00;;;;;;;17.95;8.00;;;7.80;99.90;;;;;;5068273;28;20025;-69
2022/11/27 11:59:47;;;;;;;20.85;8.52;;;7.80;99.90;;;;;;5068119;28;20060;-70
2022/11/27 12:02:33;;;;;;;18.90;8.27;;;7.80;99.90;;;;;;5062304;28;20036;-70
2022/11/27 12:05:32;;;;;;;17.45;7.90;;;7.80;99.90;;;;;;5058130;28;20028;-69
2022/11/27 12:08:14;;;;;;;14.32;7.90;;;7.80;99.90;;;;;;5062416;28;20024;-70
2022/11/27 12:11:09;;;;;;;19.27;8.93;;;7.90;99.90;;;;;;5063899;28;20035;-70
2022/11/27 12:13:41;;;;;;;17.13;7.97;;;7.90;99.90;;;;;;5069644;28;20028;-69
2022/11/27 12:16:14;;;;;;;14.82;7.93;;;7.90;99.90;;;;;;5069241;28;20495;-69
2022/11/27 12:18:54;;;;;;;16.20;8.20;;;7.90;99.90;;;;;;5063160;28;20017;-71
2022/11/27 12:21:25;;;;;;;17.42;8.98;;;7.80;99.90;;;;;;5056404;28;20029;-69
2022/11/27 12:24:14;;;;;;;19.13;8.70;;;7.80;99.90;;;;;;5056955;28;20041;-69
2022/11/27 12:27:04;;;;;;;14.75;7.95;;;7.80;99.90;;;;;;5060149;28;20117;-69
2022/11/27 12:29:45;;;;;;;17.63;8.73;;;7.90;99.90;;;;;;5064745;28;20583;-70
2022/11/27 12:32:27;;;;;;;18.58;9.30;;;7.90;99.90;;;;;;5073296;28;20369;-71
2022/11/27 12:35:18;;;;;;;17.58;8.68;;;7.80;99.90;;;;;;5078953;28;20435;-70
2022/11/27 12:37:59;;;;;;;16.60;9.15;;;7.90;99.90;;;;;;5068803;28;20016;-70
2022/11/27 12:40:54;;;;;;;17.48;8.35;;;7.90;99.90;;;;;;5069969;28;20522;-70
2022/11/27 12:43:25;;;;;;;21.52;9.07;;;7.80;99.90;;;;;;5047022;28;20115;-70
2022/11/27 12:46:20;;;;;;;23.38;9.52;;;7.80;99.90;;;;;;5062200;28;20047;-71
2022/11/27 12:48:52;;;;;;;19.52;8.50;;;7.80;99.90;;;;;;5067399;28;20048;-70
2022/11/27 12:51:28;;;;;;;15.98;8.55;;;7.90;99.90;;;;;;5055791;28;20043;-69
2022/11/27 12:53:58;;;;;;;17.95;8.68;;;7.80;99.90;;;;;;5066993;28;20020;-70
2022/11/27 12:56:46;;;;;;;18.27;8.85;;;7.80;99.90;;;;;;5063303;28;20362;-70
2022/11/27 12:59:37;;;;;;;14.63;8.80;;;7.90;99.90;;;;;;5056426;28;20024;-70
2022/11/27 13:02:16;;;;;;;16.85;8.75;;;7.90;99.90;;;;;;5068885;28;20024;-70
2022/11/27 13:04:50;;;;;;;18.02;9.18;;;7.90;99.90;;;;;;5068893;28;20031;-70
2022/11/27 13:07:53;;;;;;;20.08;10.43;;;7.90;99.90;;;;;;5054776;28;20022;-70